createdAt,value
2022-10-21T00:00:51.474Z,96.83
2022-10-21T00:03:19.432Z,95.20
2022-10-21T00:05:47.369Z,97.32
2022-10-21T00:08:15.410Z,95.91
2022-10-21T00:10:42.712Z,97.35
2022-10-21T00:13:09.988Z,97.27
2022-10-21T00:15:37.472Z,96.72
2022-10-21T00:18:04.693Z,97.46
2022-10-21T00:20:33.694Z,98.40
2022-10-21T00:23:03.338Z,97.98
2022-10-21T00:25:30.695Z,97.37
2022-10-21T00:27:57.943Z,97.48
2022-10-21T00:30:25.701Z,96.91
2022-10-21T00:32:52.870Z,96.03
2022-10-21T00:35:20.066Z,93.55
2022-10-21T00:37:47.245Z,95.37
2022-10-21T00:40:14.552Z,94.66
2022-10-21T00:42:45.535Z,94.62
2022-10-21T00:45:14.241Z,95.66
2022-10-21T00:50:27.321Z,96.56
2022-10-21T00:52:56.450Z,96.21
2022-10-21T00:55:24.880Z,96.17
2022-10-21T00:57:52.587Z,95.45
2022-10-21T01:00:20.015Z,95.82
2022-10-21T01:02:47.206Z,96.34
2022-10-21T01:05:15.200Z,95.36
2022-10-21T01:07:42.781Z,96.68
2022-10-21T01:10:10.251Z,95.19
2022-10-21T01:13:08.492Z,96.70
2022-10-21T01:15:45.332Z,97.41
2022-10-21T01:18:25.406Z,96.21
2022-10-21T01:21:14.703Z,95.70
2022-10-21T01:24:24.496Z,95.69
2022-10-21T01:27:16.803Z,97.12
2022-10-21T01:29:59.916Z,98.16
2022-10-21T01:32:39.298Z,97.73
2022-10-21T01:35:26.972Z,97.56
2022-10-21T01:38:10.526Z,96.06
2022-10-21T01:40:50.115Z,96.94
2022-10-21T01:43:34.380Z,96.05
2022-10-21T01:46:07.709Z,94.90
2022-10-21T01:48:42.169Z,94.60
2022-10-21T01:51:10.216Z,95.62
2022-10-21T01:54:03.335Z,95.45
2022-10-21T01:56:31.243Z,96.55
2022-10-21T01:58:59.487Z,95.55
2022-10-21T02:01:27.262Z,96.30
2022-10-21T02:03:57.299Z,96.74
2022-10-21T02:06:25.362Z,98.35
2022-10-21T02:08:52.701Z,99.70
2022-10-21T02:11:20.179Z,100.00
2022-10-21T02:14:06.759Z,100.00
2022-10-21T02:16:37.326Z,100.00
2022-10-21T02:19:06.525Z,100.00
2022-10-21T02:21:35.159Z,100.00
2022-10-21T02:24:41.262Z,100.00
2022-10-21T02:27:08.559Z,100.00
2022-10-21T02:29:40.619Z,100.00
2022-10-21T02:32:20.555Z,100.00
2022-10-21T02:35:14.798Z,100.00
2022-10-21T02:37:47.901Z,100.00
2022-10-21T02:40:27.275Z,100.00
2022-10-21T02:42:58.794Z,100.00
2022-10-21T02:45:26.776Z,100.00
2022-10-21T02:47:53.996Z,100.00
2022-10-21T02:50:21.489Z,100.00
2022-10-21T02:52:48.708Z,99.76
2022-10-21T02:55:16.093Z,99.73
2022-10-21T02:57:43.483Z,100.00
2022-10-21T03:00:11.337Z,100.00
2022-10-21T03:02:38.571Z,100.00
2022-10-21T03:05:06.055Z,100.00
2022-10-21T03:07:33.275Z,100.00
2022-10-21T03:10:00.581Z,100.00
2022-10-21T03:12:27.997Z,100.00
2022-10-21T03:14:55.222Z,100.00
2022-10-21T03:17:25.166Z,100.00
2022-10-21T03:19:52.781Z,100.00
2022-10-21T03:22:19.989Z,100.00
2022-10-21T03:24:47.234Z,100.00
2022-10-21T03:27:14.443Z,100.00
2022-10-21T03:29:41.694Z,100.00
2022-10-21T03:32:08.916Z,100.00
2022-10-21T03:34:36.244Z,100.00
2022-10-21T03:37:03.573Z,100.00
2022-10-21T03:39:30.741Z,100.00
2022-10-21T03:41:57.882Z,100.00
2022-10-21T03:44:25.176Z,100.00
2022-10-21T03:46:52.379Z,100.00
2022-10-21T03:49:21.446Z,100.00
2022-10-21T03:51:49.350Z,100.00
2022-10-21T03:54:18.435Z,100.00
2022-10-21T03:56:45.827Z,100.00
2022-10-21T03:59:13.154Z,100.00
2022-10-21T04:01:40.529Z,100.00
2022-10-21T04:04:07.958Z,100.00
2022-10-21T04:06:35.469Z,100.00
2022-10-21T04:09:03.391Z,100.00
2022-10-21T04:11:30.751Z,100.00
2022-10-21T04:13:57.983Z,100.00
2022-10-21T04:16:25.363Z,100.00
2022-10-21T04:18:52.579Z,100.00
2022-10-21T04:21:19.891Z,100.00
2022-10-21T04:23:47.289Z,100.00
2022-10-21T04:26:14.628Z,100.00
2022-10-21T04:28:41.905Z,100.00
2022-10-21T04:31:09.407Z,100.00
2022-10-21T04:33:36.704Z,100.00
2022-10-21T04:36:04.096Z,100.00
2022-10-21T04:38:31.608Z,100.00
2022-10-21T04:40:59.881Z,100.00
2022-10-21T04:43:27.438Z,100.00
2022-10-21T04:45:54.952Z,100.00
2022-10-21T04:48:22.740Z,100.00
2022-10-21T04:50:51.241Z,100.00
2022-10-21T04:53:18.534Z,100.00
2022-10-21T04:55:45.960Z,100.00
2022-10-21T04:58:13.255Z,100.00
2022-10-21T05:00:40.508Z,100.00
2022-10-21T05:03:07.802Z,100.00
2022-10-21T05:05:35.156Z,100.00
2022-10-21T05:08:02.428Z,100.00
2022-10-21T05:10:30.498Z,100.00
2022-10-21T05:12:58.440Z,100.00
2022-10-21T05:15:26.321Z,100.00
2022-10-21T05:17:53.956Z,100.00
2022-10-21T05:20:21.287Z,100.00
2022-10-21T05:22:49.463Z,100.00
2022-10-21T05:25:16.806Z,100.00
2022-10-21T05:27:44.430Z,100.00
2022-10-21T05:30:12.732Z,100.00
2022-10-21T05:32:41.233Z,100.00
2022-10-21T05:35:08.677Z,100.00
2022-10-21T05:37:35.876Z,100.00
2022-10-21T05:40:04.377Z,100.00
2022-10-21T05:42:31.777Z,100.00
2022-10-21T05:44:59.006Z,100.00
2022-10-21T05:47:26.196Z,100.00
2022-10-21T05:49:53.638Z,100.00
2022-10-21T05:52:20.895Z,100.00
2022-10-21T05:54:48.539Z,100.00
2022-10-21T05:57:15.891Z,100.00
2022-10-21T05:59:43.117Z,100.00
2022-10-21T06:02:10.647Z,100.00
2022-10-21T06:04:39.023Z,100.00
2022-10-21T06:07:06.446Z,100.00
2022-10-21T06:09:33.716Z,100.00
2022-10-21T06:12:00.991Z,100.00
2022-10-21T06:14:28.198Z,100.00
2022-10-21T06:16:55.498Z,100.00
2022-10-21T06:19:22.805Z,100.00
2022-10-21T06:21:50.040Z,98.84
2022-10-21T06:24:17.368Z,96.79
2022-10-21T06:26:44.565Z,98.65
2022-10-21T06:29:11.946Z,99.48
2022-10-21T06:31:39.368Z,100.00
2022-10-21T06:34:06.595Z,100.00
2022-10-21T06:36:34.035Z,100.00
2022-10-21T06:39:01.491Z,100.00
2022-10-21T06:41:28.661Z,100.00
2022-10-21T06:43:55.881Z,100.00
2022-10-21T06:46:23.313Z,100.00
2022-10-21T06:48:50.619Z,100.00
2022-10-21T06:51:20.684Z,100.00
2022-10-21T06:53:52.130Z,100.00
2022-10-21T06:56:20.115Z,100.00
2022-10-21T06:58:49.019Z,100.00
2022-10-21T07:01:40.874Z,100.00
2022-10-21T07:04:16.021Z,100.00
2022-10-21T07:06:43.290Z,100.00
2022-10-21T07:09:10.622Z,100.00
2022-10-21T07:11:37.996Z,100.00
2022-10-21T07:14:05.665Z,100.00
2022-10-21T07:16:37.712Z,100.00
2022-10-21T07:19:05.751Z,100.00
2022-10-21T07:21:33.300Z,100.00
2022-10-21T07:24:01.058Z,100.00
2022-10-21T07:26:30.890Z,100.00
2022-10-21T07:29:00.844Z,100.00
2022-10-21T07:31:30.760Z,100.00
2022-10-21T07:33:59.477Z,100.00
2022-10-21T07:36:29.292Z,100.00
2022-10-21T07:38:59.546Z,100.00
2022-10-21T07:41:32.756Z,100.00
2022-10-21T07:44:00.655Z,100.00
2022-10-21T07:46:28.167Z,100.00
2022-10-21T07:48:56.238Z,100.00
2022-10-21T07:51:28.501Z,100.00
2022-10-21T07:53:58.588Z,100.00
2022-10-21T07:56:36.233Z,100.00
2022-10-21T07:59:07.730Z,100.00
2022-10-21T08:01:40.319Z,100.00
2022-10-21T08:04:07.675Z,100.00
2022-10-21T08:06:35.154Z,100.00
2022-10-21T08:09:02.704Z,100.00
2022-10-21T08:11:31.968Z,100.00
2022-10-21T08:13:59.675Z,100.00
2022-10-21T08:16:27.534Z,100.00
2022-10-21T08:18:55.633Z,100.00
2022-10-21T08:21:22.846Z,100.00
2022-10-21T08:23:50.098Z,100.00
2022-10-21T08:26:17.466Z,99.36
2022-10-21T08:28:44.843Z,99.15
2022-10-21T08:31:17.229Z,98.33
2022-10-21T08:33:45.113Z,98.22
2022-10-21T08:36:17.074Z,98.38
2022-10-21T08:38:44.603Z,98.39
2022-10-21T08:41:26.272Z,99.79
2022-10-21T08:43:54.666Z,100.00
2022-10-21T08:46:24.780Z,98.70
2022-10-21T08:48:55.588Z,99.44
2022-10-21T08:51:33.397Z,98.25
2022-10-21T08:54:05.630Z,99.73
2022-10-21T08:56:32.974Z,100.00
2022-10-21T08:59:00.211Z,100.00
2022-10-21T09:01:39.508Z,100.00
2022-10-21T09:04:09.905Z,100.00
2022-10-21T09:06:53.774Z,99.97
2022-10-21T09:09:29.706Z,99.50
2022-10-21T09:12:09.185Z,99.28
2022-10-21T09:14:43.117Z,99.48
2022-10-21T09:17:34.819Z,99.49
2022-10-21T09:20:06.356Z,98.97
2022-10-21T09:22:42.318Z,98.70
2022-10-21T09:25:26.407Z,97.30
2022-10-21T09:27:56.815Z,96.69
2022-10-21T09:30:25.359Z,97.11
2022-10-21T09:32:58.338Z,95.96
2022-10-21T09:35:46.695Z,95.24
2022-10-21T09:38:40.388Z,97.28
2022-10-21T09:41:14.864Z,98.25
2022-10-21T09:43:43.534Z,98.94
2022-10-21T09:46:15.418Z,98.29
2022-10-21T09:51:42.746Z,94.75
2022-10-21T09:54:15.656Z,93.13
2022-10-21T09:56:56.932Z,92.55
2022-10-21T09:59:29.066Z,92.64
2022-10-21T10:02:07.135Z,91.94
2022-10-21T10:04:35.344Z,91.64
2022-10-21T10:07:18.595Z,90.99
2022-10-21T10:09:47.512Z,89.83
2022-10-21T10:12:16.604Z,89.29
2022-10-21T10:14:46.009Z,89.66
2022-10-21T10:17:37.370Z,89.36
2022-10-21T10:20:04.592Z,89.29
2022-10-21T10:22:41.922Z,88.53
2022-10-21T10:25:17.816Z,88.43
2022-10-21T10:27:53.585Z,87.56
2022-10-21T10:30:22.664Z,88.78
2022-10-21T10:32:51.819Z,88.72
2022-10-21T10:35:34.391Z,89.00
2022-10-21T10:38:02.661Z,88.86
2022-10-21T10:40:34.033Z,88.32
2022-10-21T10:43:40.207Z,86.14
2022-10-21T10:46:10.237Z,85.59
2022-10-21T10:48:44.430Z,84.87
2022-10-21T10:51:24.363Z,84.13
2022-10-21T10:54:27.863Z,82.88
2022-10-21T10:56:57.851Z,81.77
2022-10-21T10:59:31.030Z,82.26
2022-10-21T11:02:11.430Z,80.40
2022-10-21T11:05:09.327Z,80.09
2022-10-21T11:07:47.733Z,80.27
2022-10-21T11:10:34.190Z,79.38
2022-10-21T11:13:03.347Z,78.89
2022-10-21T11:15:48.956Z,78.83
2022-10-21T11:18:30.203Z,77.37
2022-10-21T11:21:10.516Z,76.87
2022-10-21T11:24:02.557Z,77.04
2022-10-21T11:26:44.939Z,75.95
2022-10-21T11:29:24.217Z,75.39
2022-10-21T11:32:16.128Z,77.77
2022-10-21T11:35:00.459Z,73.86
2022-10-21T11:37:51.573Z,72.20
2022-10-21T11:40:38.107Z,70.96
2022-10-21T11:43:30.416Z,69.77
2022-10-21T11:46:09.162Z,69.31
2022-10-21T11:49:02.900Z,67.28
2022-10-21T11:51:58.371Z,66.96
2022-10-21T11:55:07.894Z,66.44
2022-10-21T11:58:13.798Z,63.37
2022-10-21T12:01:14.947Z,61.81
2022-10-21T12:04:17.409Z,63.46
2022-10-21T12:06:48.898Z,62.96
2022-10-21T12:09:20.609Z,61.74
2022-10-21T12:12:03.800Z,60.15
2022-10-21T12:14:37.466Z,60.88
2022-10-21T12:17:16.507Z,60.87
2022-10-21T12:19:47.534Z,60.93
2022-10-21T12:22:15.053Z,60.76
2022-10-21T12:24:49.163Z,60.14
2022-10-21T12:27:32.908Z,60.43
2022-10-21T12:30:29.436Z,60.51
2022-10-21T12:33:08.457Z,59.90
2022-10-21T12:35:51.229Z,59.35
2022-10-21T12:38:44.458Z,60.33
2022-10-21T12:41:23.686Z,58.18
2022-10-21T12:43:58.305Z,58.36
2022-10-21T12:46:28.259Z,58.67
2022-10-21T12:48:56.070Z,58.66
2022-10-21T12:51:27.023Z,58.38
2022-10-21T12:53:58.889Z,58.85
2022-10-21T12:56:50.016Z,58.63
2022-10-21T12:59:36.186Z,57.37
2022-10-21T13:02:06.209Z,57.99
2022-10-21T13:04:33.546Z,58.55
2022-10-21T13:07:23.695Z,58.40
2022-10-21T13:09:50.887Z,58.48
2022-10-21T13:12:27.131Z,58.11
2022-10-21T13:14:58.615Z,58.64
2022-10-21T13:17:30.677Z,57.48
2022-10-21T13:20:06.963Z,56.88
2022-10-21T13:22:42.247Z,57.50
2022-10-21T13:25:15.855Z,57.23
2022-10-21T13:27:46.591Z,57.38
2022-10-21T13:30:36.106Z,56.36
2022-10-21T13:33:05.307Z,57.22
2022-10-21T13:35:43.847Z,56.80
2022-10-21T13:38:31.063Z,57.03
2022-10-21T13:41:07.647Z,56.52
2022-10-21T13:43:48.895Z,56.55
2022-10-21T13:46:28.321Z,57.32
2022-10-21T13:48:59.604Z,57.08
2022-10-21T13:51:35.314Z,57.17
2022-10-21T13:54:15.245Z,57.13
2022-10-21T13:56:47.577Z,57.96
2022-10-21T13:59:22.795Z,56.76
2022-10-21T14:01:52.426Z,56.04
2022-10-21T14:04:24.298Z,56.38
2022-10-21T14:06:58.297Z,56.54
2022-10-21T14:09:28.217Z,57.53
2022-10-21T14:12:01.516Z,57.29
2022-10-21T14:14:30.026Z,57.62
2022-10-21T14:17:00.537Z,57.51
2022-10-21T14:19:29.963Z,57.06
2022-10-21T14:21:59.243Z,57.87
2022-10-21T14:24:40.135Z,57.72
2022-10-21T14:27:10.965Z,57.53
2022-10-21T14:29:38.762Z,57.69
2022-10-21T14:32:06.263Z,57.72
2022-10-21T14:34:35.305Z,57.17
2022-10-21T14:37:19.114Z,56.92
2022-10-21T14:39:53.146Z,56.85
2022-10-21T14:42:23.042Z,56.54
2022-10-21T14:44:53.033Z,56.94
2022-10-21T14:49:56.324Z,57.97
2022-10-21T14:52:44.621Z,57.36
2022-10-21T14:55:17.083Z,57.42
2022-10-21T14:57:50.089Z,57.72
2022-10-21T15:00:29.877Z,57.78
2022-10-21T15:02:59.019Z,57.97
2022-10-21T15:05:34.482Z,58.26
2022-10-21T15:08:34.354Z,58.32
2022-10-21T15:11:04.723Z,58.71
2022-10-21T15:13:33.161Z,58.17
2022-10-21T15:16:01.414Z,58.38
2022-10-21T15:18:34.566Z,58.43
2022-10-21T15:21:24.354Z,58.27
2022-10-21T15:23:57.553Z,59.04
2022-10-21T15:26:39.563Z,59.11
2022-10-21T15:29:18.846Z,59.34
2022-10-21T15:31:46.262Z,59.43
2022-10-21T15:34:16.039Z,59.78
2022-10-21T15:36:44.117Z,60.20
2022-10-21T15:39:11.997Z,60.64
2022-10-21T15:41:39.475Z,60.58
2022-10-21T15:44:28.553Z,60.27
2022-10-21T15:47:01.031Z,60.52
2022-10-21T15:49:32.742Z,60.06
2022-10-21T15:52:00.554Z,60.29
2022-10-21T15:54:27.744Z,60.29
2022-10-21T15:56:55.197Z,60.77
2022-10-21T15:59:25.532Z,60.32
2022-10-21T16:01:53.076Z,60.51
2022-10-21T16:04:21.182Z,60.65
2022-10-21T16:07:34.805Z,60.79
2022-10-21T16:10:30.617Z,61.23
2022-10-21T16:12:58.429Z,61.91
2022-10-21T16:15:25.724Z,62.00
2022-10-21T16:17:56.887Z,61.91
2022-10-21T16:20:27.386Z,62.26
2022-10-21T16:22:58.088Z,62.74
2022-10-21T16:25:27.913Z,62.47
2022-10-21T16:27:56.502Z,62.52
2022-10-21T16:30:26.923Z,63.04
2022-10-21T16:32:54.221Z,63.01
2022-10-21T16:35:21.761Z,63.67
2022-10-21T16:37:49.539Z,63.49
2022-10-21T16:40:21.002Z,64.08
2022-10-21T16:42:49.159Z,63.77
2022-10-21T16:45:17.513Z,64.52
2022-10-21T16:47:48.137Z,64.43
2022-10-21T16:50:22.070Z,65.20
2022-10-21T16:52:49.759Z,65.28
2022-10-21T16:55:17.644Z,65.69
2022-10-21T16:57:44.959Z,66.88
2022-10-21T17:00:13.662Z,67.14
2022-10-21T17:02:41.474Z,67.00
2022-10-21T17:05:11.430Z,66.37
2022-10-21T17:07:38.938Z,66.35
2022-10-21T17:10:06.958Z,67.06
2022-10-21T17:12:35.607Z,67.06
2022-10-21T17:15:03.850Z,67.22
2022-10-21T17:17:31.295Z,67.33
2022-10-21T17:19:58.519Z,68.22
2022-10-21T17:22:25.804Z,67.44
2022-10-21T17:24:53.093Z,68.66
2022-10-21T17:27:21.575Z,69.22
2022-10-21T17:29:48.776Z,68.57
2022-10-21T17:32:15.997Z,68.94
2022-10-21T17:34:43.232Z,68.80
2022-10-21T17:37:11.914Z,69.06
2022-10-21T17:39:39.196Z,69.01
2022-10-21T17:42:06.522Z,69.01
2022-10-21T17:44:33.881Z,68.87
2022-10-21T17:47:01.106Z,68.89
2022-10-21T17:49:28.370Z,68.79
2022-10-21T17:51:56.087Z,69.37
2022-10-21T17:54:26.604Z,70.04
2022-10-21T17:56:57.680Z,70.48
2022-10-21T17:59:25.149Z,70.98
2022-10-21T18:01:52.433Z,72.03
2022-10-21T18:04:19.949Z,72.50
2022-10-21T18:06:47.264Z,73.07
2022-10-21T18:09:14.668Z,73.96
2022-10-21T18:11:41.993Z,74.98
2022-10-21T18:14:09.206Z,75.38
2022-10-21T18:16:36.544Z,74.85
2022-10-21T18:19:03.772Z,74.18
2022-10-21T18:21:31.002Z,73.70
2022-10-21T18:23:58.498Z,72.78
2022-10-21T18:26:28.493Z,73.36
2022-10-21T18:29:01.785Z,73.61
2022-10-21T18:31:32.035Z,74.54
2022-10-21T18:34:00.101Z,74.68
2022-10-21T18:36:27.771Z,74.37
2022-10-21T18:38:55.691Z,74.28
2022-10-21T18:41:22.993Z,73.76
2022-10-21T18:43:54.842Z,73.69
2022-10-21T18:46:22.688Z,74.05
2022-10-21T18:48:50.323Z,74.82
2022-10-21T18:51:23.156Z,74.72
2022-10-21T18:53:52.740Z,75.37
2022-10-21T18:56:22.609Z,77.72
2022-10-21T18:58:50.526Z,78.05
2022-10-21T19:01:18.945Z,78.81
2022-10-21T19:03:46.851Z,79.13
2022-10-21T19:06:46.020Z,80.44
2022-10-21T19:09:18.658Z,82.14
2022-10-21T19:11:46.659Z,81.24
2022-10-21T19:14:15.087Z,80.93
2022-10-21T19:16:43.639Z,81.77
2022-10-21T19:19:11.124Z,81.13
2022-10-21T19:21:38.401Z,81.04
2022-10-21T19:24:06.248Z,80.38
2022-10-21T19:26:34.913Z,80.04
2022-10-21T19:29:04.598Z,79.61
2022-10-21T19:31:36.194Z,79.27
2022-10-21T19:34:07.140Z,79.45
2022-10-21T19:36:34.990Z,80.02
2022-10-21T19:39:02.244Z,79.95
2022-10-21T19:41:29.456Z,78.95
2022-10-21T19:43:59.953Z,79.57
2022-10-21T19:46:29.122Z,80.10
2022-10-21T19:48:57.027Z,80.00
2022-10-21T19:51:25.829Z,81.06
2022-10-21T19:53:54.716Z,81.95
2022-10-21T19:56:26.853Z,81.40
2022-10-21T19:58:55.533Z,81.38
2022-10-21T20:01:25.128Z,81.71
2022-10-21T20:03:53.224Z,81.74
2022-10-21T20:06:27.019Z,82.13
2022-10-21T20:08:58.791Z,81.51
2022-10-21T20:11:27.257Z,82.24
2022-10-21T20:13:55.089Z,81.77
2022-10-21T20:16:28.652Z,81.54
2022-10-21T20:18:57.175Z,82.05
2022-10-21T20:21:25.327Z,81.74
2022-10-21T20:23:53.135Z,81.23
2022-10-21T20:26:20.415Z,80.93
2022-10-21T20:28:47.609Z,81.25
2022-10-21T20:31:15.910Z,80.13
2022-10-21T20:33:48.644Z,80.40
2022-10-21T20:36:19.666Z,80.13
2022-10-21T20:38:47.639Z,79.62
2022-10-21T20:41:17.615Z,79.62
2022-10-21T20:43:45.088Z,80.27
2022-10-21T20:46:13.261Z,80.30
2022-10-21T20:48:42.841Z,80.32
2022-10-21T20:51:12.424Z,80.33
2022-10-21T20:53:44.045Z,81.45
2022-10-21T20:56:11.287Z,80.85
2022-10-21T20:58:39.669Z,80.73
2022-10-21T21:01:11.795Z,80.24
2022-10-21T21:03:41.723Z,80.12
2022-10-21T21:06:10.367Z,80.45
2022-10-21T21:08:44.717Z,80.26
2022-10-21T21:11:21.197Z,80.36
2022-10-21T21:13:48.835Z,80.41
2022-10-21T21:16:20.485Z,79.74
2022-10-21T21:18:53.528Z,80.31
2022-10-21T21:21:22.217Z,80.38
2022-10-21T21:23:49.640Z,80.71
2022-10-21T21:26:22.664Z,80.66
2022-10-21T21:28:53.367Z,80.86
2022-10-21T21:31:22.200Z,80.99
2022-10-21T21:33:49.592Z,80.64
2022-10-21T21:36:18.137Z,81.12
2022-10-21T21:38:45.868Z,81.22
2022-10-21T21:41:13.549Z,81.33
2022-10-21T21:43:41.572Z,81.44
2022-10-21T21:46:08.903Z,80.65
2022-10-21T21:48:36.142Z,80.48
2022-10-21T21:51:05.726Z,80.42
2022-10-21T21:53:33.287Z,81.60
2022-10-21T21:56:03.244Z,81.72
2022-10-21T21:58:30.755Z,81.86
2022-10-21T22:00:58.383Z,82.42
2022-10-21T22:03:25.656Z,81.72
2022-10-21T22:05:52.896Z,82.09
2022-10-21T22:08:20.306Z,81.85
2022-10-21T22:10:47.598Z,81.52
2022-10-21T22:13:14.812Z,81.79
2022-10-21T22:15:48.169Z,81.58
2022-10-21T22:18:16.255Z,82.65
2022-10-21T22:20:43.474Z,82.08
2022-10-21T22:23:10.729Z,81.46
2022-10-21T22:25:37.912Z,81.92
2022-10-21T22:28:05.306Z,81.58
2022-10-21T22:30:32.499Z,81.19
2022-10-21T22:32:59.707Z,80.87
2022-10-21T22:35:28.212Z,81.26
2022-10-21T22:37:55.426Z,80.81
2022-10-21T22:40:22.666Z,81.18
2022-10-21T22:42:49.902Z,81.19
2022-10-21T22:45:17.129Z,81.04
2022-10-21T22:47:44.458Z,80.65
2022-10-21T22:50:11.647Z,81.11
2022-10-21T22:52:41.179Z,80.54
2022-10-21T22:55:09.974Z,80.87
2022-10-21T22:57:37.182Z,80.69
2022-10-21T23:00:05.014Z,81.04
2022-10-21T23:02:32.268Z,81.38
2022-10-21T23:04:59.468Z,80.99
2022-10-21T23:07:26.802Z,80.39
2022-10-21T23:09:54.118Z,80.75
2022-10-21T23:12:21.530Z,80.31
2022-10-21T23:14:48.735Z,80.75
2022-10-21T23:17:15.999Z,81.08
2022-10-21T23:19:43.280Z,80.92
2022-10-21T23:22:11.035Z,80.79
2022-10-21T23:24:38.420Z,80.26
2022-10-21T23:27:05.627Z,81.05
2022-10-21T23:29:32.864Z,80.90
2022-10-21T23:32:00.123Z,80.72
2022-10-21T23:34:27.390Z,80.18
2022-10-21T23:36:54.663Z,80.47
2022-10-21T23:39:21.919Z,80.38
2022-10-21T23:41:49.430Z,80.19
2022-10-21T23:44:16.745Z,79.68
2022-10-21T23:46:43.948Z,80.48
2022-10-21T23:49:11.280Z,80.28
2022-10-21T23:51:38.693Z,81.47
2022-10-21T23:54:05.886Z,81.14
2022-10-21T23:56:33.069Z,80.82
2022-10-21T23:59:01.127Z,80.34
